Terminal Aerodrome Forecast
Issued by NWS Albany, NY

Home | Current Version | Previous Version | Text Only | Print | Product List | Glossary On
Versions: 1 2 3 4 5 6 7 8 9 10 11 12 13 14
016
FTUS41 KALY 232336
TAFGFL
TAF
KGFL 232336Z 2400/2424 VRB05KT P6SM FEW050 SCT100 SCT250
     FM240600 VRB03KT 3SM BR FEW030
     FM241200 07003KT P6SM SKC
     FM241500 06006KT P6SM SKC=

USA.gov is the U.S. government's official web portal to all federal, state and local government web resources and services.